createdAt,value
2023-05-05T00:01:11.894Z,68.48
2023-05-05T00:03:40.124Z,69.29
2023-05-05T00:06:08.048Z,69.01
2023-05-05T00:08:35.695Z,69.26
2023-05-05T00:11:03.288Z,69.47
2023-05-05T00:13:31.159Z,69.52
2023-05-05T00:15:58.727Z,69.40
2023-05-05T00:18:28.176Z,68.85
2023-05-05T00:20:55.840Z,69.92
2023-05-05T00:23:23.379Z,69.19
2023-05-05T00:25:51.067Z,70.02
2023-05-05T00:28:18.717Z,69.95
2023-05-05T00:30:46.292Z,69.47
2023-05-05T00:33:13.932Z,69.50
2023-05-05T00:35:43.145Z,69.04
2023-05-05T00:38:10.720Z,69.20
2023-05-05T00:40:38.429Z,69.48
2023-05-05T00:43:06.144Z,69.12
2023-05-05T00:45:33.706Z,69.87
2023-05-05T00:48:02.060Z,70.04
2023-05-05T00:50:30.852Z,69.97
2023-05-05T00:53:02.528Z,70.08
2023-05-05T00:55:31.057Z,70.07
2023-05-05T00:57:59.434Z,70.69
2023-05-05T01:00:27.684Z,71.41
2023-05-05T01:02:56.480Z,70.84
2023-05-05T01:05:25.734Z,71.46
2023-05-05T01:08:08.030Z,71.27
2023-05-05T01:10:39.210Z,71.85
2023-05-05T01:13:21.462Z,71.99
2023-05-05T01:15:53.350Z,73.34
2023-05-05T01:18:30.771Z,72.86
2023-05-05T01:21:06.049Z,72.67
2023-05-05T01:24:00.222Z,72.90
2023-05-05T01:26:45.116Z,73.26
2023-05-05T01:29:39.333Z,72.91
2023-05-05T01:32:11.708Z,73.37
2023-05-05T01:34:45.112Z,73.27
2023-05-05T01:37:19.413Z,74.05
2023-05-05T01:39:52.164Z,74.13
2023-05-05T01:42:22.209Z,74.77
2023-05-05T01:44:52.964Z,75.55
2023-05-05T01:47:24.063Z,74.52
2023-05-05T01:49:53.640Z,75.73
2023-05-05T01:52:22.647Z,75.23
2023-05-05T01:54:51.517Z,75.28
2023-05-05T01:57:21.508Z,75.64
2023-05-05T01:59:51.821Z,76.11
2023-05-05T02:02:21.817Z,76.46
2023-05-05T02:04:53.254Z,76.66
2023-05-05T02:07:22.414Z,76.68
2023-05-05T02:09:49.955Z,77.96
2023-05-05T02:12:20.173Z,77.89
2023-05-05T02:14:49.031Z,78.07
2023-05-05T02:17:17.933Z,77.89
2023-05-05T02:19:46.881Z,78.47
2023-05-05T02:22:16.773Z,78.73
2023-05-05T02:24:44.773Z,78.86
2023-05-05T02:27:13.165Z,79.38
2023-05-05T02:29:48.552Z,78.96
2023-05-05T02:32:21.371Z,79.74
2023-05-05T02:34:51.361Z,79.83
2023-05-05T02:37:24.109Z,79.76
2023-05-05T02:40:04.518Z,80.71
2023-05-05T02:42:38.131Z,80.60
2023-05-05T02:45:13.660Z,81.35
2023-05-05T02:47:44.446Z,81.31
2023-05-05T02:50:12.777Z,81.99
2023-05-05T02:52:48.516Z,82.81
2023-05-05T02:55:17.490Z,83.03
2023-05-05T02:57:50.874Z,83.48
2023-05-05T03:00:24.870Z,82.91
2023-05-05T03:03:05.826Z,83.00
2023-05-05T03:05:42.571Z,83.67
2023-05-05T03:08:16.986Z,84.10
2023-05-05T03:10:48.751Z,84.32
2023-05-05T03:13:19.482Z,85.07
2023-05-05T03:15:50.148Z,85.18
2023-05-05T03:18:23.495Z,85.81
2023-05-05T03:20:58.027Z,86.60
2023-05-05T03:23:27.074Z,86.90
2023-05-05T03:25:58.889Z,86.79
2023-05-05T03:28:40.279Z,87.38
2023-05-05T03:31:15.888Z,87.87
2023-05-05T03:33:43.670Z,88.38
2023-05-05T03:36:11.452Z,88.51
2023-05-05T03:38:41.080Z,89.02
2023-05-05T03:41:09.725Z,89.76
2023-05-05T03:43:39.177Z,90.56
2023-05-05T03:46:07.678Z,90.64
2023-05-05T03:48:35.437Z,90.77
2023-05-05T03:51:03.298Z,92.06
2023-05-05T03:53:33.281Z,93.17
2023-05-05T03:56:04.985Z,93.27
2023-05-05T03:58:32.569Z,93.98
2023-05-05T04:01:00.299Z,94.56
2023-05-05T04:03:27.955Z,93.89
2023-05-05T04:05:55.786Z,94.40
2023-05-05T04:08:23.411Z,95.08
2023-05-05T04:10:51.554Z,94.88
2023-05-05T04:13:20.504Z,95.13
2023-05-05T04:15:49.417Z,96.32
2023-05-05T04:18:18.477Z,95.86
2023-05-05T04:20:46.605Z,96.72
2023-05-05T04:23:14.430Z,96.46
2023-05-05T04:25:42.384Z,96.09
2023-05-05T04:28:11.083Z,96.92
2023-05-05T04:30:40.475Z,96.92
2023-05-05T04:33:08.258Z,97.08
2023-05-05T04:35:36.346Z,97.44
2023-05-05T04:38:04.115Z,96.86
2023-05-05T04:40:32.077Z,97.35
2023-05-05T04:43:00.196Z,97.31
2023-05-05T04:45:27.834Z,97.98
2023-05-05T04:47:57.167Z,98.25
2023-05-05T04:50:24.882Z,98.79
2023-05-05T04:52:52.854Z,98.93
2023-05-05T04:55:20.740Z,98.57
2023-05-05T04:57:48.313Z,98.36
2023-05-05T05:00:16.259Z,98.43
2023-05-05T05:02:43.906Z,97.59
2023-05-05T05:05:12.916Z,98.46
2023-05-05T05:07:40.761Z,98.01
2023-05-05T05:10:09.471Z,97.97
2023-05-05T05:12:37.671Z,97.59
2023-05-05T05:15:06.294Z,96.34
2023-05-05T05:17:33.902Z,96.28
2023-05-05T05:20:04.709Z,96.70
2023-05-05T05:22:38.189Z,96.95
2023-05-05T05:25:08.836Z,97.22
2023-05-05T05:27:36.423Z,96.89
2023-05-05T05:30:04.485Z,96.28
2023-05-05T05:32:33.490Z,97.07
2023-05-05T05:35:01.564Z,96.86
2023-05-05T05:37:30.936Z,96.83
2023-05-05T05:40:00.724Z,97.45
2023-05-05T05:42:31.478Z,97.08
2023-05-05T05:44:59.773Z,97.89
2023-05-05T05:47:28.014Z,97.80
2023-05-05T05:49:56.777Z,97.55
2023-05-05T05:52:24.350Z,97.25
2023-05-05T05:54:52.427Z,97.24
2023-05-05T05:57:22.367Z,97.18
2023-05-05T05:59:50.425Z,96.49
2023-05-05T06:02:19.102Z,96.05
2023-05-05T06:04:47.093Z,95.61
2023-05-05T06:07:15.243Z,94.98
2023-05-05T06:09:43.025Z,95.24
2023-05-05T06:12:10.733Z,94.24
2023-05-05T06:14:39.681Z,94.74
2023-05-05T06:17:07.416Z,94.09
2023-05-05T06:19:39.211Z,94.21
2023-05-05T06:22:06.834Z,93.97
2023-05-05T06:24:35.346Z,93.00
2023-05-05T06:27:03.573Z,92.28
2023-05-05T06:29:31.128Z,92.20
2023-05-05T06:32:01.117Z,91.82
2023-05-05T06:34:28.645Z,90.85
2023-05-05T06:36:56.166Z,90.91
2023-05-05T06:39:23.718Z,90.48
2023-05-05T06:41:51.270Z,89.46
2023-05-05T06:44:18.821Z,89.94
2023-05-05T06:46:46.411Z,89.84
2023-05-05T06:49:15.383Z,89.55
2023-05-05T06:51:43.085Z,89.23
2023-05-05T06:54:10.724Z,88.11
2023-05-05T06:56:38.234Z,88.38
2023-05-05T06:59:05.734Z,86.56
2023-05-05T07:01:33.254Z,87.82
2023-05-05T07:04:01.155Z,87.36
2023-05-05T07:06:30.138Z,87.42
2023-05-05T07:08:57.861Z,85.60
2023-05-05T07:11:25.620Z,85.54
2023-05-05T07:13:53.166Z,85.28
2023-05-05T07:16:20.794Z,84.65
2023-05-05T07:18:48.321Z,83.89
2023-05-05T07:21:15.845Z,84.26
2023-05-05T07:23:47.574Z,83.71
2023-05-05T07:26:15.409Z,83.79
2023-05-05T07:28:43.877Z,84.09
2023-05-05T07:31:11.439Z,84.29
2023-05-05T07:33:39.029Z,83.98
2023-05-05T07:36:06.916Z,83.67
2023-05-05T07:38:34.616Z,83.42
2023-05-05T07:41:03.927Z,84.57
2023-05-05T07:43:31.556Z,84.02
2023-05-05T07:45:59.243Z,84.12
2023-05-05T07:48:28.186Z,83.04
2023-05-05T07:50:55.824Z,83.37
2023-05-05T07:53:23.399Z,83.25
2023-05-05T07:55:51.141Z,82.75
2023-05-05T07:58:19.992Z,83.42
2023-05-05T08:00:49.131Z,82.96
2023-05-05T08:03:16.780Z,82.27
2023-05-05T08:05:44.325Z,81.99
2023-05-05T08:08:11.917Z,82.42
2023-05-05T08:10:39.477Z,82.65
2023-05-05T08:13:07.128Z,82.46
2023-05-05T08:15:36.036Z,82.17
2023-05-05T08:18:03.603Z,82.01
2023-05-05T08:20:31.277Z,81.55
2023-05-05T08:22:58.849Z,80.33
2023-05-05T08:25:27.054Z,80.43
2023-05-05T08:27:54.857Z,81.32
2023-05-05T08:30:22.440Z,80.92
2023-05-05T08:32:51.434Z,79.63
2023-05-05T08:35:19.198Z,79.11
2023-05-05T08:37:46.763Z,78.03
2023-05-05T08:40:15.177Z,78.23
2023-05-05T08:42:44.492Z,77.52
2023-05-05T08:45:12.392Z,76.36
2023-05-05T08:47:40.472Z,75.57
2023-05-05T08:50:11.695Z,76.09
2023-05-05T08:52:41.236Z,74.87
2023-05-05T08:55:16.176Z,75.03
2023-05-05T08:57:51.441Z,74.06
2023-05-05T09:00:19.992Z,73.39
2023-05-05T09:02:48.601Z,72.83
2023-05-05T09:05:18.006Z,71.82
2023-05-05T09:07:47.103Z,72.18
2023-05-05T09:10:14.664Z,72.99
2023-05-05T09:12:42.568Z,71.55
2023-05-05T09:15:12.013Z,71.71
2023-05-05T09:17:40.142Z,72.98
2023-05-05T09:20:10.001Z,73.47
2023-05-05T09:22:39.819Z,73.31
2023-05-05T09:25:09.745Z,74.80
2023-05-05T09:27:38.252Z,74.58
2023-05-05T09:30:07.000Z,73.90
2023-05-05T09:32:44.839Z,73.95
2023-05-05T09:35:12.637Z,74.52
2023-05-05T09:37:41.888Z,73.31
2023-05-05T09:40:10.811Z,72.30
2023-05-05T09:42:39.356Z,71.50
2023-05-05T09:45:25.859Z,71.56
2023-05-05T09:47:59.229Z,71.33
2023-05-05T09:50:30.541Z,71.40
2023-05-05T09:53:01.187Z,71.83
2023-05-05T09:55:30.740Z,70.57
2023-05-05T09:57:58.355Z,72.08
2023-05-05T10:00:38.778Z,73.05
2023-05-05T10:03:06.515Z,72.86
2023-05-05T10:05:34.359Z,73.47
2023-05-05T10:08:13.779Z,72.54
2023-05-05T10:10:48.281Z,73.13
2023-05-05T10:13:19.051Z,73.23
2023-05-05T10:15:48.166Z,73.35
2023-05-05T10:18:16.983Z,72.88
2023-05-05T10:20:46.525Z,73.10
2023-05-05T10:23:19.301Z,72.99
2023-05-05T10:25:52.977Z,72.38
2023-05-05T10:28:27.893Z,71.87
2023-05-05T10:30:59.242Z,72.16
2023-05-05T10:33:35.129Z,72.25
2023-05-05T10:36:06.528Z,71.61
2023-05-05T10:38:36.876Z,70.12
2023-05-05T10:41:04.902Z,71.20
2023-05-05T10:43:32.497Z,71.03
2023-05-05T10:46:01.342Z,69.71
2023-05-05T10:48:35.470Z,69.21
2023-05-05T10:51:31.136Z,69.67
2023-05-05T10:54:13.649Z,69.21
2023-05-05T10:56:42.793Z,68.48
2023-05-05T10:59:40.892Z,68.46
2023-05-05T11:02:28.303Z,68.16
2023-05-05T11:05:21.324Z,68.46
2023-05-05T11:07:50.200Z,66.17
2023-05-05T11:10:22.896Z,64.30
2023-05-05T11:13:19.802Z,64.82
2023-05-05T11:15:48.024Z,65.42
2023-05-05T11:18:36.383Z,65.32
2023-05-05T11:21:18.277Z,64.68
2023-05-05T11:23:48.398Z,65.97
2023-05-05T11:26:19.278Z,65.31
2023-05-05T11:29:02.030Z,65.23
2023-05-05T11:31:30.571Z,65.08
2023-05-05T11:34:36.978Z,65.59
2023-05-05T11:37:08.814Z,64.93
2023-05-05T11:39:43.619Z,65.26
2023-05-05T11:42:26.037Z,65.61
2023-05-05T11:44:54.478Z,64.90
2023-05-05T11:47:27.313Z,65.69
2023-05-05T11:49:55.499Z,66.11
2023-05-05T11:52:26.266Z,65.73
2023-05-05T11:54:53.930Z,65.26
2023-05-05T11:57:29.760Z,65.69
2023-05-05T11:59:59.472Z,65.42
2023-05-05T12:02:29.556Z,63.42
2023-05-05T12:04:58.031Z,62.84
2023-05-05T12:07:26.839Z,62.81
2023-05-05T12:09:55.067Z,64.42
2023-05-05T12:12:35.439Z,65.62
2023-05-05T12:15:03.261Z,64.66
2023-05-05T12:17:38.646Z,65.38
2023-05-05T12:20:07.343Z,64.49
2023-05-05T12:22:35.220Z,63.65
2023-05-05T12:25:04.682Z,64.29
2023-05-05T12:27:33.599Z,64.78
2023-05-05T12:30:13.137Z,67.17
2023-05-05T12:32:41.398Z,67.68
2023-05-05T12:35:10.569Z,68.02
2023-05-05T12:37:38.954Z,67.95
2023-05-05T12:40:08.972Z,69.11
2023-05-05T12:42:41.903Z,67.97
2023-05-05T12:45:17.950Z,69.53
2023-05-05T12:47:45.531Z,70.10
2023-05-05T12:50:13.247Z,71.38
2023-05-05T12:52:43.751Z,73.04
2023-05-05T12:55:11.911Z,75.61
2023-05-05T12:58:00.346Z,75.01
2023-05-05T13:00:29.224Z,76.68
2023-05-05T13:02:57.472Z,77.02
2023-05-05T13:05:32.537Z,78.41
2023-05-05T13:08:00.447Z,76.86
2023-05-05T13:10:28.218Z,76.24
2023-05-05T13:12:57.790Z,74.92
2023-05-05T13:15:25.822Z,74.24
2023-05-05T13:17:59.964Z,72.85
2023-05-05T13:20:27.762Z,74.18
2023-05-05T13:22:55.449Z,73.74
2023-05-05T13:25:23.053Z,72.67
2023-05-05T13:27:50.632Z,72.95
2023-05-05T13:30:20.556Z,72.01
2023-05-05T13:32:48.167Z,73.25
2023-05-05T13:35:16.591Z,73.86
2023-05-05T13:37:45.894Z,75.09
2023-05-05T13:40:14.498Z,73.81
2023-05-05T13:42:42.095Z,74.56
2023-05-05T13:45:10.652Z,73.75
2023-05-05T13:47:40.833Z,74.98
2023-05-05T13:50:09.030Z,74.10
2023-05-05T13:52:37.332Z,76.27
2023-05-05T13:55:05.933Z,77.58
2023-05-05T13:57:33.591Z,78.56
2023-05-05T14:00:01.170Z,77.76
2023-05-05T14:02:28.741Z,76.73
2023-05-05T14:04:57.667Z,75.67
2023-05-05T14:07:25.231Z,73.67
2023-05-05T14:09:52.776Z,73.59
2023-05-05T14:12:20.427Z,70.99
2023-05-05T14:14:47.990Z,72.74
2023-05-05T14:17:15.731Z,71.83
2023-05-05T14:19:44.338Z,71.45
2023-05-05T14:22:13.237Z,72.47
2023-05-05T14:24:40.909Z,72.65
2023-05-05T14:27:08.596Z,72.61
2023-05-05T14:29:36.106Z,72.71
2023-05-05T14:32:03.758Z,72.75
2023-05-05T14:34:31.456Z,72.53
2023-05-05T14:36:59.001Z,73.44
2023-05-05T14:39:27.885Z,73.32
2023-05-05T14:41:55.432Z,73.48
2023-05-05T14:44:23.012Z,73.86
2023-05-05T14:46:51.253Z,73.98
2023-05-05T14:49:18.854Z,73.06
2023-05-05T14:51:46.385Z,73.49
2023-05-05T14:54:26.905Z,72.50
2023-05-05T14:56:58.237Z,72.61
2023-05-05T14:59:26.195Z,73.41
2023-05-05T15:01:53.853Z,74.00
2023-05-05T15:04:21.482Z,74.87
2023-05-05T15:06:49.080Z,74.78
2023-05-05T15:09:18.012Z,74.53
2023-05-05T15:11:45.973Z,76.01
2023-05-05T15:14:14.903Z,75.52
2023-05-05T15:16:42.482Z,75.80
2023-05-05T15:19:10.078Z,76.50
2023-05-05T15:21:37.625Z,77.01
2023-05-05T15:24:05.879Z,75.70
2023-05-05T15:26:33.465Z,76.91
2023-05-05T15:29:01.011Z,76.87
2023-05-05T15:31:29.967Z,76.73
2023-05-05T15:33:57.535Z,77.08
2023-05-05T15:36:25.078Z,76.75
2023-05-05T15:38:52.719Z,76.60
2023-05-05T15:41:20.485Z,76.17
2023-05-05T15:43:47.989Z,76.94
2023-05-05T15:46:15.612Z,76.34
2023-05-05T15:48:44.490Z,75.80
2023-05-05T15:51:12.496Z,76.05
2023-05-05T15:53:40.013Z,75.23
2023-05-05T15:56:07.924Z,76.41
2023-05-05T15:58:36.607Z,76.58
2023-05-05T16:01:04.293Z,76.76
2023-05-05T16:03:31.956Z,77.27
2023-05-05T16:06:00.920Z,77.36
2023-05-05T16:08:29.039Z,77.77
2023-05-05T16:10:56.855Z,78.76
2023-05-05T16:13:24.418Z,78.82
2023-05-05T16:15:52.080Z,78.58
2023-05-05T16:18:19.615Z,78.10
2023-05-05T16:20:47.240Z,78.17
2023-05-05T16:23:16.263Z,78.92
2023-05-05T16:25:43.769Z,79.04
2023-05-05T16:28:11.329Z,79.14
2023-05-05T16:30:39.768Z,79.20
2023-05-05T16:33:07.547Z,79.96
2023-05-05T16:35:36.078Z,79.74
2023-05-05T16:38:03.695Z,79.55
2023-05-05T16:40:32.627Z,79.69
2023-05-05T16:43:00.189Z,79.97
2023-05-05T16:45:27.713Z,79.79
2023-05-05T16:47:56.076Z,80.75
2023-05-05T16:50:23.828Z,79.93
2023-05-05T16:52:51.625Z,80.87
2023-05-05T16:55:19.519Z,80.62
2023-05-05T16:57:48.482Z,80.98
2023-05-05T17:00:16.457Z,80.54
2023-05-05T17:02:44.030Z,80.29
2023-05-05T17:05:11.817Z,80.52
2023-05-05T17:07:39.698Z,80.74
2023-05-05T17:10:08.712Z,80.13
2023-05-05T17:12:36.334Z,80.28
2023-05-05T17:15:06.059Z,80.25
2023-05-05T17:17:33.696Z,80.43
2023-05-05T17:20:03.006Z,81.30
2023-05-05T17:22:30.577Z,81.55
2023-05-05T17:24:58.131Z,81.31
2023-05-05T17:27:25.763Z,81.20
2023-05-05T17:29:53.663Z,81.24
2023-05-05T17:32:22.592Z,81.23
2023-05-05T17:34:50.168Z,81.21
2023-05-05T17:37:17.680Z,81.15
2023-05-05T17:39:45.256Z,81.16
2023-05-05T17:42:12.794Z,81.53
2023-05-05T17:44:40.338Z,80.82
2023-05-05T17:47:08.555Z,81.22
2023-05-05T17:49:37.411Z,80.41
2023-05-05T17:52:05.406Z,80.91
2023-05-05T17:54:33.022Z,81.13
2023-05-05T17:57:00.545Z,80.88
2023-05-05T17:59:28.107Z,81.05
2023-05-05T18:01:55.673Z,81.24
2023-05-05T18:04:23.804Z,81.86
2023-05-05T18:06:55.600Z,82.15
2023-05-05T18:09:23.555Z,83.05
2023-05-05T18:11:53.005Z,83.81
2023-05-05T18:14:21.135Z,84.07
2023-05-05T18:16:50.281Z,86.17
2023-05-05T18:19:19.233Z,87.14
2023-05-05T18:21:46.890Z,88.21
2023-05-05T18:24:20.276Z,89.37
2023-05-05T18:26:49.881Z,88.20
2023-05-05T18:29:18.550Z,90.25
2023-05-05T18:31:48.332Z,90.17
2023-05-05T18:34:16.884Z,92.22
2023-05-05T18:36:44.546Z,92.24
2023-05-05T18:39:12.254Z,92.53
2023-05-05T18:41:41.190Z,92.87
2023-05-05T18:44:08.781Z,93.14
2023-05-05T18:46:36.434Z,92.34
2023-05-05T18:49:04.496Z,92.67
2023-05-05T18:51:32.152Z,92.29
2023-05-05T18:54:00.827Z,92.78
2023-05-05T18:56:28.770Z,92.01
2023-05-05T18:58:57.697Z,93.50
2023-05-05T19:01:25.264Z,92.67
2023-05-05T19:03:52.926Z,92.55
2023-05-05T19:06:20.492Z,93.86
2023-05-05T19:08:48.043Z,94.36
2023-05-05T19:11:15.617Z,94.63
2023-05-05T19:13:43.297Z,94.85
2023-05-05T19:16:12.539Z,97.07
2023-05-05T19:18:40.350Z,96.65
2023-05-05T19:21:08.014Z,97.14
2023-05-05T19:23:36.051Z,96.55
2023-05-05T19:26:05.535Z,97.31
2023-05-05T19:28:33.175Z,97.76
2023-05-05T19:31:00.732Z,97.58
2023-05-05T19:33:29.753Z,98.54
2023-05-05T19:35:57.475Z,97.93
2023-05-05T19:38:25.001Z,98.59
2023-05-05T19:40:53.983Z,98.63
2023-05-05T19:43:22.151Z,99.62
2023-05-05T19:45:49.834Z,98.23
2023-05-05T19:48:17.385Z,98.53
2023-05-05T19:50:46.443Z,99.75
2023-05-05T19:53:14.200Z,100.00
2023-05-05T19:55:41.788Z,100.00
2023-05-05T19:58:09.311Z,100.00
2023-05-05T20:00:36.948Z,100.00
2023-05-05T20:03:04.727Z,100.00
2023-05-05T20:05:32.380Z,100.00
2023-05-05T20:08:01.330Z,99.51
2023-05-05T20:10:28.860Z,99.64
2023-05-05T20:12:56.521Z,99.47
2023-05-05T20:15:24.111Z,99.98
2023-05-05T20:17:51.670Z,99.48
2023-05-05T20:20:21.757Z,99.04
2023-05-05T20:22:50.382Z,98.83
2023-05-05T20:25:19.240Z,98.88
2023-05-05T20:27:46.772Z,99.93
2023-05-05T20:30:14.483Z,99.52
2023-05-05T20:32:42.324Z,99.56
2023-05-05T20:35:12.266Z,100.00
2023-05-05T20:37:39.835Z,100.00
2023-05-05T20:40:09.049Z,100.00
2023-05-05T20:42:38.204Z,100.00
2023-05-05T20:45:06.948Z,100.00
2023-05-05T20:47:35.201Z,100.00
2023-05-05T20:50:02.849Z,100.00
2023-05-05T20:52:30.524Z,100.00
2023-05-05T20:54:58.127Z,100.00
2023-05-05T20:57:26.062Z,100.00
2023-05-05T20:59:55.042Z,100.00
2023-05-05T21:02:22.605Z,100.00
2023-05-05T21:04:50.361Z,100.00
2023-05-05T21:07:17.914Z,100.00
2023-05-05T21:09:47.108Z,100.00
2023-05-05T21:12:14.629Z,100.00
2023-05-05T21:14:44.031Z,100.00
2023-05-05T21:17:12.990Z,100.00
2023-05-05T21:19:41.131Z,100.00
2023-05-05T21:22:08.689Z,100.00
2023-05-05T21:24:36.221Z,100.00
2023-05-05T21:27:03.790Z,100.00
2023-05-05T21:29:34.233Z,100.00
2023-05-05T21:32:01.957Z,100.00
2023-05-05T21:34:30.929Z,100.00
2023-05-05T21:36:59.046Z,100.00
2023-05-05T21:39:26.778Z,100.00
2023-05-05T21:41:54.760Z,100.00
2023-05-05T21:44:22.343Z,100.00
2023-05-05T21:46:49.913Z,100.00
2023-05-05T21:49:18.620Z,100.00
2023-05-05T21:51:47.558Z,100.00
2023-05-05T21:54:15.158Z,100.00
2023-05-05T21:56:42.979Z,100.00
2023-05-05T21:59:10.966Z,100.00
2023-05-05T22:01:38.584Z,100.00
2023-05-05T22:04:07.424Z,100.00
2023-05-05T22:06:35.107Z,100.00
2023-05-05T22:09:04.052Z,100.00
2023-05-05T22:11:31.649Z,100.00
2023-05-05T22:13:59.165Z,100.00
2023-05-05T22:16:26.729Z,100.00
2023-05-05T22:18:54.324Z,100.00
2023-05-05T22:21:22.161Z,100.00
2023-05-05T22:23:49.768Z,100.00
2023-05-05T22:26:18.674Z,100.00
2023-05-05T22:28:46.282Z,100.00
2023-05-05T22:31:13.860Z,100.00
2023-05-05T22:33:41.445Z,100.00
2023-05-05T22:36:09.983Z,100.00
2023-05-05T22:38:37.637Z,100.00
2023-05-05T22:41:07.294Z,100.00
2023-05-05T22:43:36.724Z,100.00
2023-05-05T22:46:04.228Z,100.00
2023-05-05T22:48:31.758Z,100.00
2023-05-05T22:50:59.779Z,100.00
2023-05-05T22:53:27.323Z,100.00
2023-05-05T22:55:55.059Z,100.00
2023-05-05T22:58:22.870Z,100.00
2023-05-05T23:00:51.779Z,100.00
2023-05-05T23:03:19.385Z,100.00
2023-05-05T23:05:46.936Z,100.00
2023-05-05T23:08:14.490Z,100.00
2023-05-05T23:10:41.994Z,100.00
2023-05-05T23:13:09.610Z,100.00
2023-05-05T23:15:37.221Z,100.00
2023-05-05T23:18:06.249Z,100.00
2023-05-05T23:20:33.904Z,100.00
2023-05-05T23:23:01.467Z,100.00
2023-05-05T23:25:29.051Z,100.00
2023-05-05T23:27:56.607Z,100.00
2023-05-05T23:30:24.156Z,100.00
2023-05-05T23:32:51.712Z,100.00
2023-05-05T23:35:21.356Z,100.00
2023-05-05T23:37:48.925Z,100.00
2023-05-05T23:40:16.484Z,100.00
2023-05-05T23:42:44.014Z,100.00
2023-05-05T23:45:12.217Z,100.00
2023-05-05T23:47:40.045Z,100.00
2023-05-05T23:50:08.964Z,100.00
2023-05-05T23:52:37.818Z,100.00
2023-05-05T23:55:06.738Z,100.00
2023-05-05T23:57:35.174Z,100.00
